createdAt,value
2023-05-16T00:00:45.695Z,39.33
2023-05-16T00:01:48.858Z,41.55
2023-05-16T00:02:55.205Z,33.35
2023-05-16T00:07:51.019Z,35.00
2023-05-16T00:09:52.690Z,36.15
2023-05-16T00:27:37.015Z,35.63
2023-05-16T00:31:24.617Z,34.60
2023-05-16T00:32:28.621Z,39.80
2023-05-16T00:37:17.059Z,33.13
2023-05-16T00:38:22.654Z,34.35
2023-05-16T00:39:25.935Z,34.90
2023-05-16T00:40:29.376Z,34.22
2023-05-16T00:41:37.140Z,39.20
2023-05-16T00:42:45.209Z,37.13
2023-05-16T00:47:35.173Z,43.60
2023-05-16T00:52:39.278Z,37.65
2023-05-16T01:00:14.904Z,38.17
2023-05-16T01:01:23.473Z,41.88
2023-05-16T01:02:29.195Z,33.45
2023-05-16T01:07:16.367Z,33.50
2023-05-16T02:50:14.285Z,19.58
2023-05-16T02:51:16.315Z,23.33
2023-05-16T02:52:19.302Z,18.95
2023-05-16T02:53:21.407Z,23.00
2023-05-16T02:54:23.947Z,18.10
2023-05-16T02:55:26.459Z,21.92
2023-05-16T02:56:28.265Z,19.52
2023-05-16T02:57:30.143Z,18.77
2023-05-16T02:58:31.938Z,18.85
2023-05-16T02:59:34.110Z,18.38
2023-05-16T03:00:36.031Z,19.63
2023-05-16T03:01:37.896Z,17.92
2023-05-16T03:02:41.368Z,18.05
2023-05-16T03:03:45.785Z,20.73
2023-05-16T03:04:47.734Z,23.52
2023-05-16T03:05:50.212Z,20.15
2023-05-16T03:06:52.039Z,19.10
2023-05-16T03:07:53.889Z,20.48
2023-05-16T03:08:56.285Z,20.45
2023-05-16T03:09:58.099Z,19.48
2023-05-16T03:10:59.987Z,16.83
2023-05-16T03:12:01.887Z,20.83
2023-05-16T03:13:03.734Z,18.00
2023-05-16T03:14:08.439Z,26.02
2023-05-16T03:15:10.427Z,17.77
2023-05-16T03:16:12.543Z,19.80
2023-05-16T03:17:14.604Z,23.13
2023-05-16T03:18:16.528Z,17.83
2023-05-16T03:19:20.653Z,18.75
2023-05-16T03:20:22.783Z,20.17
2023-05-16T03:21:25.225Z,21.90
2023-05-16T03:22:27.326Z,24.55
2023-05-16T03:23:30.404Z,23.15
2023-05-16T03:24:33.587Z,19.15
2023-05-16T03:25:36.634Z,27.85
2023-05-16T03:26:38.632Z,16.67
2023-05-16T03:27:40.421Z,24.33
2023-05-16T03:28:42.298Z,18.83
2023-05-16T03:29:46.738Z,18.20
2023-05-16T03:30:48.879Z,21.42
2023-05-16T03:31:50.812Z,18.50
2023-05-16T03:32:52.973Z,24.48
2023-05-16T03:33:55.070Z,20.52
2023-05-16T03:34:56.949Z,19.83
2023-05-16T03:35:58.882Z,21.90
2023-05-16T03:37:01.392Z,22.83
2023-05-16T03:38:03.736Z,19.60
2023-05-16T03:39:10.845Z,20.98
2023-05-16T03:40:13.238Z,24.10
2023-05-16T03:41:15.870Z,20.48
2023-05-16T03:42:18.524Z,22.75
2023-05-16T03:43:20.589Z,18.13
2023-05-16T03:44:23.019Z,21.48
2023-05-16T03:45:25.168Z,20.60
2023-05-16T03:46:27.555Z,17.73
2023-05-16T03:47:32.048Z,22.58
2023-05-16T03:48:34.055Z,22.17
2023-05-16T03:49:37.134Z,21.38
2023-05-16T03:50:41.000Z,17.65
2023-05-16T03:51:43.182Z,24.67
2023-05-16T03:52:45.223Z,20.10
2023-05-16T03:53:47.178Z,16.98
2023-05-16T03:54:50.220Z,21.30
2023-05-16T03:55:52.167Z,19.45
2023-05-16T03:56:54.016Z,18.25
2023-05-16T03:57:56.144Z,16.77
2023-05-16T03:58:59.374Z,16.35
2023-05-16T04:00:01.387Z,17.17
2023-05-16T04:01:13.227Z,15.63
2023-05-16T04:02:16.351Z,17.67
2023-05-16T04:03:20.270Z,17.75
2023-05-16T04:04:23.261Z,16.15
2023-05-16T04:05:25.358Z,15.57
2023-05-16T04:06:27.485Z,27.38
2023-05-16T04:07:29.277Z,13.57
2023-05-16T04:08:31.848Z,19.30
2023-05-16T04:09:34.950Z,15.60
2023-05-16T04:10:36.772Z,20.27
2023-05-16T04:11:38.903Z,13.13
2023-05-16T04:12:40.857Z,16.52
2023-05-16T04:13:42.773Z,14.73
2023-05-16T04:14:45.071Z,14.55
2023-05-16T04:15:46.984Z,18.67
2023-05-16T04:16:49.062Z,13.90
2023-05-16T04:17:51.635Z,17.35
2023-05-16T04:18:54.174Z,16.42
2023-05-16T04:19:58.362Z,14.95
2023-05-16T04:21:00.442Z,18.27
2023-05-16T04:22:02.610Z,23.73
2023-05-16T04:23:07.190Z,17.23
2023-05-16T04:24:10.553Z,18.13
2023-05-16T04:25:14.489Z,14.27
2023-05-16T04:26:18.232Z,13.32
2023-05-16T04:27:20.357Z,16.95
2023-05-16T04:28:25.725Z,17.50
2023-05-16T04:29:29.659Z,11.43
2023-05-16T04:30:31.809Z,19.67
2023-05-16T04:31:34.248Z,11.88
2023-05-16T04:32:36.965Z,13.82
2023-05-16T04:33:39.176Z,13.73
2023-05-16T04:34:44.386Z,14.07
2023-05-16T04:35:46.686Z,10.95
2023-05-16T04:36:48.713Z,15.88
2023-05-16T04:37:51.366Z,13.02
2023-05-16T04:38:53.661Z,12.80
2023-05-16T04:39:56.013Z,12.18
2023-05-16T04:40:57.814Z,13.10
2023-05-16T04:41:59.825Z,13.75
2023-05-16T04:43:01.941Z,16.23
2023-05-16T04:44:07.027Z,14.10
2023-05-16T04:45:13.145Z,12.48
2023-05-16T04:46:17.931Z,15.68
2023-05-16T04:47:20.130Z,12.63
2023-05-16T04:48:24.109Z,12.48
2023-05-16T04:49:26.287Z,12.73
2023-05-16T04:53:02.307Z,10.13
2023-05-16T04:55:05.868Z,14.02
2023-05-16T04:56:11.250Z,13.13
2023-05-16T04:57:37.039Z,13.00
2023-05-16T04:58:42.795Z,10.40
2023-05-16T04:59:48.994Z,12.02
2023-05-16T05:01:04.054Z,13.23
2023-05-16T05:02:09.124Z,10.93
2023-05-16T05:03:12.582Z,11.05
2023-05-16T05:04:18.706Z,11.07
2023-05-16T05:05:23.482Z,10.38
2023-05-16T05:06:25.701Z,12.25
2023-05-16T05:07:29.561Z,8.40
2023-05-16T05:13:40.948Z,10.35
2023-05-16T05:14:52.912Z,8.95
2023-05-16T05:16:11.964Z,12.90
2023-05-16T05:17:19.528Z,8.70
2023-05-16T05:21:50.395Z,7.13
2023-05-16T05:22:56.752Z,7.05
2023-05-16T05:24:06.483Z,10.05
2023-05-16T05:25:20.289Z,11.68
2023-05-16T05:26:22.792Z,9.93
2023-05-16T05:27:31.359Z,9.45
2023-05-16T05:29:37.343Z,11.68
2023-05-16T05:30:41.230Z,6.88
2023-05-16T05:31:44.950Z,9.93
2023-05-16T05:32:47.059Z,9.65
2023-05-16T05:33:49.316Z,10.30
2023-05-16T05:34:51.968Z,10.20
2023-05-16T05:35:54.260Z,6.60
2023-05-16T05:36:56.849Z,8.90
2023-05-16T05:37:58.713Z,7.85
2023-05-16T05:39:00.716Z,8.02
2023-05-16T05:40:03.250Z,5.97
2023-05-16T05:41:07.528Z,8.52
2023-05-16T05:42:09.508Z,10.52
2023-05-16T05:43:11.448Z,5.35
2023-05-16T05:44:14.058Z,9.48
2023-05-16T05:45:16.740Z,8.07
2023-05-16T05:46:18.767Z,8.25
2023-05-16T05:47:21.749Z,8.05
2023-05-16T05:48:23.968Z,6.45
2023-05-16T05:49:29.309Z,11.40
2023-05-16T05:50:32.436Z,8.98
2023-05-16T05:51:37.450Z,9.95
2023-05-16T05:52:40.398Z,6.38
2023-05-16T05:53:42.683Z,5.88
2023-05-16T05:54:44.848Z,5.45
2023-05-16T05:55:47.130Z,7.63
2023-05-16T05:56:49.188Z,7.30
2023-05-16T05:57:51.202Z,4.72
2023-05-16T05:58:57.009Z,6.95
2023-05-16T05:59:59.270Z,7.95
2023-05-16T06:01:03.175Z,7.45
2023-05-16T06:02:05.895Z,6.72
2023-05-16T06:03:07.893Z,5.97
2023-05-16T06:04:10.592Z,6.38
2023-05-16T06:05:12.822Z,8.00
2023-05-16T06:06:15.728Z,6.75
2023-05-16T06:07:18.509Z,7.82
2023-05-16T06:08:20.547Z,4.90
2023-05-16T06:09:23.568Z,5.80
2023-05-16T06:10:26.213Z,12.15
2023-05-16T06:11:28.444Z,12.60
2023-05-16T06:12:32.481Z,8.68
2023-05-16T06:13:34.696Z,6.55
2023-05-16T06:14:41.073Z,8.13
2023-05-16T06:15:48.576Z,5.13
2023-05-16T06:16:51.789Z,4.65
2023-05-16T06:17:55.441Z,7.00
2023-05-16T06:18:57.858Z,6.82
2023-05-16T06:20:02.274Z,4.75
2023-05-16T06:21:51.492Z,7.20
2023-05-16T06:22:56.946Z,5.78
2023-05-16T06:25:17.854Z,6.97
2023-05-16T06:26:20.496Z,8.88
2023-05-16T06:27:27.622Z,7.95
2023-05-16T06:31:12.607Z,6.30
2023-05-16T06:32:24.049Z,4.35
2023-05-16T06:33:26.502Z,4.50
2023-05-16T06:34:56.198Z,4.05
2023-05-16T06:36:15.254Z,9.00
2023-05-16T06:38:20.261Z,11.13
2023-05-16T06:39:22.518Z,4.53
2023-05-16T06:40:25.909Z,5.95
2023-05-16T06:41:28.069Z,8.93
2023-05-16T06:42:30.540Z,9.32
2023-05-16T06:43:32.840Z,6.82
2023-05-16T06:44:36.221Z,7.53
2023-05-16T06:45:41.134Z,5.20
2023-05-16T06:46:43.330Z,5.07
2023-05-16T06:47:45.459Z,4.05
2023-05-16T06:48:47.788Z,3.90
2023-05-16T06:50:06.947Z,8.27
2023-05-16T06:51:10.017Z,5.00
2023-05-16T06:52:13.523Z,6.22
2023-05-16T06:53:21.675Z,5.43
2023-05-16T06:54:25.118Z,5.65
2023-05-16T06:57:58.193Z,4.50
2023-05-16T07:00:11.655Z,4.20
2023-05-16T07:03:22.814Z,7.95
2023-05-16T07:05:27.506Z,8.95
2023-05-16T07:06:26.323Z,3.90
2023-05-16T07:07:28.453Z,4.50
2023-05-16T07:08:30.451Z,5.93
2023-05-16T07:09:38.356Z,3.58
2023-05-16T07:10:49.959Z,5.97
2023-05-16T07:11:52.283Z,5.47
2023-05-16T07:12:54.755Z,5.10
2023-05-16T07:14:00.577Z,4.82
2023-05-16T07:15:03.754Z,7.40
2023-05-16T07:16:08.717Z,4.78
2023-05-16T07:17:11.829Z,7.95
2023-05-16T07:18:14.834Z,7.63
2023-05-16T07:19:43.707Z,10.45
2023-05-16T07:20:54.111Z,6.20
2023-05-16T07:21:58.575Z,6.65
2023-05-16T07:23:04.422Z,5.07
2023-05-16T07:24:07.999Z,4.50
2023-05-16T07:25:14.585Z,6.55
2023-05-16T07:26:17.137Z,4.25
2023-05-16T07:27:20.417Z,7.28
2023-05-16T07:28:23.805Z,12.00
2023-05-16T07:29:26.117Z,8.15
2023-05-16T07:30:29.748Z,6.07
2023-05-16T07:31:31.936Z,11.80
2023-05-16T07:32:34.090Z,6.80
2023-05-16T07:33:36.384Z,6.28
2023-05-16T07:34:42.395Z,10.18
2023-05-16T07:35:44.808Z,7.03
2023-05-16T07:36:47.109Z,9.27
2023-05-16T07:37:49.449Z,9.30
2023-05-16T07:38:51.661Z,5.70
2023-05-16T07:39:53.923Z,7.43
2023-05-16T07:40:56.275Z,7.28
2023-05-16T07:41:58.452Z,4.10
2023-05-16T07:43:03.329Z,5.72
2023-05-16T07:44:06.128Z,5.47
2023-05-16T07:45:09.774Z,4.47
2023-05-16T07:46:12.257Z,4.97
2023-05-16T07:47:17.966Z,4.38
2023-05-16T07:48:20.197Z,5.35
2023-05-16T07:49:25.314Z,7.15
2023-05-16T07:50:31.769Z,6.75
2023-05-16T07:51:34.146Z,7.20
2023-05-16T07:52:36.556Z,10.35
2023-05-16T07:53:39.051Z,10.48
2023-05-16T07:54:47.105Z,4.72
2023-05-16T07:55:52.092Z,5.28
2023-05-16T07:56:55.403Z,5.85
2023-05-16T07:57:57.572Z,6.75
2023-05-16T07:58:59.884Z,4.93
2023-05-16T08:00:05.281Z,7.15
2023-05-16T08:01:17.793Z,9.00
2023-05-16T08:02:31.089Z,6.82
2023-05-16T08:03:33.392Z,16.88
2023-05-16T08:04:35.294Z,6.78
2023-05-16T08:05:38.058Z,7.25
2023-05-16T08:06:42.194Z,4.05
2023-05-16T08:07:44.070Z,4.80
2023-05-16T08:08:45.848Z,6.97
2023-05-16T08:09:50.819Z,4.63
2023-05-16T08:10:55.705Z,5.53
2023-05-16T08:11:59.903Z,8.20
2023-05-16T08:13:01.689Z,5.32
2023-05-16T08:14:03.908Z,5.80
2023-05-16T08:15:06.700Z,6.65
2023-05-16T08:16:09.060Z,4.70
2023-05-16T08:17:13.509Z,5.10
2023-05-16T08:18:16.421Z,4.38
2023-05-16T08:19:21.230Z,5.82
2023-05-16T08:20:23.610Z,8.48
2023-05-16T08:21:25.591Z,4.28
2023-05-16T08:22:38.362Z,4.95
2023-05-16T08:23:40.657Z,4.60
2023-05-16T08:24:42.527Z,4.10
2023-05-16T08:25:45.820Z,6.47
2023-05-16T08:26:47.776Z,4.78
2023-05-16T08:27:51.140Z,4.40
2023-05-16T08:29:00.917Z,5.18
2023-05-16T08:30:07.623Z,5.20
2023-05-16T08:31:20.076Z,5.20
2023-05-16T08:32:31.587Z,7.15
2023-05-16T08:33:37.373Z,6.85
2023-05-16T08:34:39.405Z,7.32
2023-05-16T08:35:58.762Z,4.60
2023-05-16T08:37:00.666Z,8.35
2023-05-16T08:38:03.392Z,4.38
2023-05-16T08:39:06.086Z,4.68
2023-05-16T08:40:10.876Z,6.93
2023-05-16T08:41:12.849Z,6.68
2023-05-16T08:42:15.093Z,4.65
2023-05-16T08:43:17.187Z,5.47
2023-05-16T08:44:22.039Z,4.75
2023-05-16T08:45:25.300Z,7.00
2023-05-16T08:46:29.128Z,5.68
2023-05-16T08:47:32.355Z,4.03
2023-05-16T08:48:35.019Z,6.15
2023-05-16T08:49:38.870Z,8.43
2023-05-16T08:50:42.963Z,6.75
2023-05-16T08:51:46.543Z,4.97
2023-05-16T08:52:52.640Z,6.18
2023-05-16T08:54:00.680Z,4.63
2023-05-16T08:55:10.701Z,8.25
2023-05-16T08:56:14.644Z,6.43
2023-05-16T08:57:17.285Z,6.57
2023-05-16T08:58:20.284Z,6.68
2023-05-16T08:59:22.368Z,7.45
2023-05-16T09:00:25.128Z,4.05
2023-05-16T09:01:27.122Z,4.20
2023-05-16T09:02:29.306Z,4.72
2023-05-16T09:03:31.545Z,5.35
2023-05-16T09:04:33.572Z,10.00
2023-05-16T09:05:35.971Z,8.02
2023-05-16T09:06:38.397Z,3.45
2023-05-16T09:07:41.937Z,4.90
2023-05-16T09:08:43.831Z,8.27
2023-05-16T09:09:47.007Z,9.25
2023-05-16T09:10:48.965Z,5.75
2023-05-16T09:11:50.950Z,9.98
2023-05-16T09:12:52.815Z,2.70
2023-05-16T09:13:54.841Z,5.65
2023-05-16T09:14:58.583Z,3.60
2023-05-16T09:16:17.600Z,6.18
2023-05-16T09:17:25.672Z,4.47
2023-05-16T09:18:34.140Z,6.20
2023-05-16T09:19:43.122Z,3.50
2023-05-16T09:20:50.234Z,5.70
2023-05-16T09:21:52.415Z,5.28
2023-05-16T09:22:57.451Z,3.15
2023-05-16T09:24:07.757Z,6.45
2023-05-16T09:25:28.511Z,8.25
2023-05-16T09:26:37.482Z,4.13
2023-05-16T09:27:41.239Z,7.43
2023-05-16T09:28:43.812Z,8.07
2023-05-16T09:29:51.072Z,7.25
2023-05-16T09:30:54.536Z,6.68
2023-05-16T09:32:05.879Z,5.57
2023-05-16T09:33:08.051Z,5.30
2023-05-16T09:34:12.682Z,4.68
2023-05-16T09:35:35.049Z,6.78
2023-05-16T09:36:44.465Z,4.95
2023-05-16T09:37:50.743Z,8.70
2023-05-16T09:38:53.422Z,9.07
2023-05-16T09:39:55.339Z,6.05
2023-05-16T09:40:57.781Z,4.97
2023-05-16T09:41:59.996Z,9.88
2023-05-16T09:43:06.380Z,3.80
2023-05-16T09:44:08.314Z,7.82
2023-05-16T09:45:14.226Z,6.38
2023-05-16T09:46:17.439Z,8.95
2023-05-16T09:47:20.641Z,5.47
2023-05-16T09:48:23.795Z,4.57
2023-05-16T09:49:26.368Z,3.70
2023-05-16T09:50:29.380Z,4.10
2023-05-16T09:51:32.236Z,4.63
2023-05-16T09:52:34.290Z,6.38
2023-05-16T09:53:38.844Z,5.93
2023-05-16T09:54:41.328Z,4.75
2023-05-16T09:55:43.808Z,9.48
2023-05-16T09:56:50.738Z,4.15
2023-05-16T09:57:52.765Z,6.20
2023-05-16T09:58:54.621Z,2.45
2023-05-16T10:00:01.630Z,4.82
2023-05-16T10:01:05.071Z,7.28
2023-05-16T10:02:08.037Z,2.28
2023-05-16T10:03:10.809Z,5.32
2023-05-16T10:04:16.216Z,8.90
2023-05-16T10:05:19.470Z,4.13
2023-05-16T10:06:22.935Z,2.67
2023-05-16T10:07:24.828Z,5.15
2023-05-16T10:08:27.315Z,3.50
2023-05-16T10:09:32.051Z,3.85
2023-05-16T10:10:36.721Z,6.18
2023-05-16T10:11:43.524Z,5.15
2023-05-16T10:12:45.957Z,4.63
2023-05-16T10:13:53.313Z,3.40
2023-05-16T10:14:56.584Z,4.65
2023-05-16T10:16:01.998Z,5.07
2023-05-16T10:17:06.644Z,5.40
2023-05-16T10:18:13.255Z,6.90
2023-05-16T10:19:17.614Z,3.97
2023-05-16T10:20:21.473Z,8.40
2023-05-16T10:21:24.675Z,3.38
2023-05-16T10:22:27.450Z,6.13
2023-05-16T10:23:30.996Z,4.20
2023-05-16T10:24:55.410Z,7.32
2023-05-16T10:25:58.445Z,5.43
2023-05-16T10:27:00.566Z,8.40
2023-05-16T10:28:03.013Z,3.28
2023-05-16T10:29:05.498Z,6.25
2023-05-16T10:30:09.973Z,5.50
2023-05-16T10:31:11.991Z,3.25
2023-05-16T10:32:14.895Z,3.78
2023-05-16T10:33:18.478Z,6.35
2023-05-16T10:34:20.962Z,8.57
2023-05-16T10:35:23.428Z,6.32
2023-05-16T10:36:25.633Z,4.35
2023-05-16T10:37:30.695Z,4.75
2023-05-16T10:38:34.835Z,3.50
2023-05-16T10:39:38.371Z,5.50
2023-05-16T10:40:41.570Z,3.40
2023-05-16T10:41:43.969Z,3.95
2023-05-16T10:42:59.972Z,6.00
2023-05-16T10:44:02.850Z,6.22
2023-05-16T10:45:19.754Z,5.10
2023-05-16T10:46:23.527Z,5.63
2023-05-16T10:47:25.604Z,4.65
2023-05-16T10:48:35.433Z,6.72
2023-05-16T10:49:41.179Z,4.78
2023-05-16T10:50:44.780Z,4.90
2023-05-16T10:52:04.259Z,4.22
2023-05-16T10:53:34.794Z,5.18
2023-05-16T10:54:41.705Z,5.38
2023-05-16T10:55:58.947Z,5.43
2023-05-16T10:57:19.924Z,6.15
2023-05-16T10:58:48.857Z,9.82
2023-05-16T10:59:52.161Z,6.10
2023-05-16T11:01:34.010Z,8.32
2023-05-16T11:02:41.706Z,9.15
2023-05-16T11:04:02.642Z,4.63
2023-05-16T11:05:06.864Z,5.72
2023-05-16T11:06:09.552Z,3.55
2023-05-16T11:07:11.598Z,5.78
2023-05-16T11:08:14.526Z,7.00
2023-05-16T11:09:22.405Z,6.55
2023-05-16T11:10:25.443Z,3.28
2023-05-16T11:11:49.138Z,5.22
2023-05-16T11:12:52.587Z,5.43
2023-05-16T11:13:55.626Z,5.63
2023-05-16T11:14:58.540Z,5.68
2023-05-16T11:16:39.350Z,7.10
2023-05-16T11:17:45.451Z,4.95
2023-05-16T11:18:51.909Z,2.67
2023-05-16T11:20:00.586Z,5.38
2023-05-16T11:21:06.797Z,6.20
2023-05-16T11:22:23.531Z,4.07
2023-05-16T11:23:26.323Z,4.13
2023-05-16T11:24:30.151Z,3.95
2023-05-16T11:25:41.284Z,6.32
2023-05-16T11:26:43.400Z,4.25
2023-05-16T11:27:47.494Z,5.22
2023-05-16T11:28:50.701Z,3.42
2023-05-16T11:29:54.433Z,6.85
2023-05-16T11:31:00.186Z,12.88
2023-05-16T11:32:05.134Z,3.15
2023-05-16T11:33:09.854Z,5.53
2023-05-16T11:34:11.955Z,13.27
2023-05-16T11:35:18.136Z,4.82
2023-05-16T11:36:20.390Z,6.25
2023-05-16T11:37:23.014Z,5.03
2023-05-16T11:38:25.397Z,7.28
2023-05-16T11:39:27.469Z,6.13
2023-05-16T11:40:29.651Z,5.45
2023-05-16T11:41:32.884Z,7.00
2023-05-16T11:42:36.618Z,7.07
2023-05-16T11:43:43.727Z,5.35
2023-05-16T11:44:45.908Z,7.53
2023-05-16T11:45:54.746Z,7.32
2023-05-16T11:46:56.983Z,6.00
2023-05-16T11:48:04.273Z,6.53
2023-05-16T11:49:07.374Z,5.75
2023-05-16T11:50:17.525Z,6.97
2023-05-16T11:51:21.785Z,9.48
2023-05-16T11:52:23.706Z,9.82
2023-05-16T11:53:25.610Z,4.43
2023-05-16T11:54:28.540Z,10.30
2023-05-16T11:56:36.998Z,9.70
2023-05-16T11:57:39.680Z,6.88
2023-05-16T11:58:42.696Z,8.30
2023-05-16T11:59:45.284Z,6.35
2023-05-16T12:00:50.134Z,5.68
2023-05-16T12:01:52.218Z,7.38
2023-05-16T12:02:55.579Z,7.57
2023-05-16T12:03:58.340Z,10.73
2023-05-16T12:05:00.828Z,6.03
2023-05-16T12:06:04.144Z,4.15
2023-05-16T12:07:06.092Z,5.70
2023-05-16T12:08:11.026Z,6.13
2023-05-16T12:09:15.519Z,4.70
2023-05-16T12:10:20.167Z,6.97
2023-05-16T12:11:23.969Z,9.18
2023-05-16T12:12:25.850Z,7.10
2023-05-16T12:13:28.201Z,3.17
2023-05-16T12:14:30.259Z,3.92
2023-05-16T12:15:33.626Z,5.45
2023-05-16T12:16:39.783Z,5.50
2023-05-16T12:17:42.424Z,4.53
2023-05-16T12:18:45.885Z,4.88
2023-05-16T12:19:48.306Z,3.58
2023-05-16T12:20:51.307Z,4.90
2023-05-16T12:21:54.594Z,4.63
2023-05-16T12:22:58.185Z,4.43
2023-05-16T12:24:01.033Z,4.10
2023-05-16T12:25:22.328Z,5.28
2023-05-16T12:26:31.146Z,2.70
2023-05-16T12:27:33.175Z,4.00
2023-05-16T12:28:37.617Z,3.33
2023-05-16T12:29:39.681Z,3.33
2023-05-16T12:30:44.241Z,4.38
2023-05-16T12:31:47.422Z,3.15
2023-05-16T12:33:09.404Z,4.53
2023-05-16T12:34:19.162Z,4.05
2023-05-16T12:35:21.657Z,6.57
2023-05-16T12:36:24.893Z,4.75
2023-05-16T12:37:26.843Z,4.32
2023-05-16T12:38:28.942Z,12.02
2023-05-16T12:39:37.811Z,5.55
2023-05-16T12:41:45.764Z,5.85
2023-05-16T12:42:56.829Z,8.38
2023-05-16T12:44:17.112Z,6.38
2023-05-16T12:45:19.232Z,7.88
2023-05-16T12:46:21.621Z,5.43
2023-05-16T12:47:23.505Z,5.85
2023-05-16T12:48:34.522Z,7.80
2023-05-16T12:49:36.385Z,7.88
2023-05-16T12:50:41.899Z,7.05
2023-05-16T12:51:50.016Z,6.45
2023-05-16T12:52:54.024Z,6.28
2023-05-16T12:54:06.076Z,3.60
2023-05-16T12:55:13.789Z,4.28
2023-05-16T12:56:17.791Z,7.60
2023-05-16T12:57:20.130Z,10.52
2023-05-16T12:58:22.321Z,3.92
2023-05-16T12:59:24.210Z,4.18
2023-05-16T13:00:26.678Z,4.80
2023-05-16T13:01:29.077Z,4.40
2023-05-16T13:02:30.984Z,4.97
2023-05-16T13:03:36.153Z,5.70
2023-05-16T13:04:38.800Z,4.90
2023-05-16T13:05:41.110Z,4.20
2023-05-16T13:06:57.333Z,7.30
2023-05-16T13:08:01.422Z,5.13
2023-05-16T13:09:03.658Z,5.50
2023-05-16T13:10:07.042Z,3.92
2023-05-16T13:11:09.490Z,5.50
2023-05-16T13:12:11.626Z,5.30
2023-05-16T13:13:19.406Z,2.60
2023-05-16T13:14:31.047Z,4.00
2023-05-16T13:15:33.415Z,5.22
2023-05-16T13:16:35.828Z,3.95
2023-05-16T13:17:39.160Z,2.92
2023-05-16T13:18:41.050Z,4.75
2023-05-16T13:19:42.950Z,8.43
2023-05-16T13:20:44.980Z,5.43
2023-05-16T13:21:46.854Z,5.13
2023-05-16T13:22:49.032Z,5.50
2023-05-16T13:23:51.007Z,7.18
2023-05-16T13:24:53.088Z,6.30
2023-05-16T13:25:55.495Z,7.28
2023-05-16T13:26:58.157Z,9.88
2023-05-16T13:28:00.466Z,7.68
2023-05-16T13:29:02.395Z,10.25
2023-05-16T13:30:04.952Z,5.63
2023-05-16T13:31:12.608Z,6.93
2023-05-16T13:32:14.557Z,4.95
2023-05-16T13:33:16.504Z,5.97
2023-05-16T13:34:18.462Z,5.30
2023-05-16T13:35:20.422Z,5.53
2023-05-16T13:36:22.557Z,6.55
2023-05-16T13:37:24.580Z,4.63
2023-05-16T13:38:26.602Z,3.85
2023-05-16T13:39:28.459Z,3.25
2023-05-16T13:40:30.994Z,5.95
2023-05-16T13:41:37.741Z,4.55
2023-05-16T13:42:39.768Z,4.95
2023-05-16T13:43:41.618Z,7.93
2023-05-16T13:44:44.879Z,4.78
2023-05-16T13:45:46.905Z,5.63
2023-05-16T13:46:49.132Z,6.95
2023-05-16T13:47:50.981Z,7.88
2023-05-16T13:48:52.920Z,5.25
2023-05-16T13:49:54.809Z,5.60
2023-05-16T13:50:58.095Z,9.18
2023-05-16T13:52:01.578Z,7.10
2023-05-16T13:53:04.303Z,20.35
2023-05-16T13:54:06.123Z,26.70
2023-05-16T13:55:08.422Z,7.93
2023-05-16T13:56:11.126Z,5.75
2023-05-16T13:57:13.174Z,6.72
2023-05-16T13:58:15.041Z,5.20
2023-05-16T13:59:24.627Z,6.40
2023-05-16T14:00:45.206Z,5.43
2023-05-16T14:01:51.247Z,6.47
2023-05-16T14:02:53.212Z,6.82
2023-05-16T14:03:55.185Z,7.60
2023-05-16T14:04:58.047Z,6.35
2023-05-16T14:06:00.515Z,4.00
2023-05-16T14:07:02.416Z,8.05
2023-05-16T14:08:05.380Z,5.53
2023-05-16T14:09:08.160Z,9.05
2023-05-16T14:10:10.288Z,5.45
2023-05-16T14:11:12.452Z,4.82
2023-05-16T14:12:14.430Z,5.63
2023-05-16T14:13:16.423Z,5.15
2023-05-16T14:14:18.367Z,8.55
2023-05-16T14:15:21.390Z,5.95
2023-05-16T14:16:23.425Z,6.68
2023-05-16T14:17:25.382Z,4.30
2023-05-16T14:18:27.479Z,2.70
2023-05-16T14:19:32.508Z,5.82
2023-05-16T14:20:34.521Z,5.57
2023-05-16T14:21:36.678Z,3.55
2023-05-16T14:22:38.688Z,6.20
2023-05-16T14:23:40.794Z,4.65
2023-05-16T14:24:42.663Z,4.75
2023-05-16T14:25:44.424Z,6.35
2023-05-16T14:26:46.476Z,4.35
2023-05-16T14:27:51.029Z,7.38
2023-05-16T14:28:53.008Z,3.45
2023-05-16T14:29:55.844Z,4.50
2023-05-16T14:30:58.169Z,5.15
2023-05-16T14:32:00.523Z,6.15
2023-05-16T14:33:03.561Z,3.58
2023-05-16T14:34:05.865Z,5.13
2023-05-16T14:35:09.551Z,3.70
2023-05-16T14:36:11.576Z,8.30
2023-05-16T14:37:14.389Z,10.77
2023-05-16T14:38:16.802Z,7.10
2023-05-16T14:39:18.918Z,5.28
2023-05-16T14:40:21.905Z,5.22
2023-05-16T14:41:24.140Z,3.05
2023-05-16T14:42:26.042Z,4.10
2023-05-16T14:43:28.815Z,7.32
2023-05-16T14:44:30.664Z,6.85
2023-05-16T14:45:32.562Z,7.00
2023-05-16T14:46:34.672Z,4.30
2023-05-16T14:47:36.664Z,51.30
2023-05-16T14:48:38.684Z,13.98
2023-05-16T14:49:41.259Z,4.40
2023-05-16T14:50:43.321Z,3.65
2023-05-16T14:51:49.217Z,6.88
2023-05-16T14:52:51.256Z,8.13
2023-05-16T14:53:53.167Z,5.97
2023-05-16T14:54:55.223Z,6.88
2023-05-16T14:55:57.530Z,9.85
2023-05-16T14:57:00.260Z,10.30
2023-05-16T14:58:02.303Z,6.80
2023-05-16T14:59:04.208Z,4.90
2023-05-16T15:00:07.468Z,7.13
2023-05-16T15:01:09.792Z,4.18
2023-05-16T15:02:11.765Z,8.50
2023-05-16T15:03:15.853Z,12.07
2023-05-16T15:04:17.932Z,5.88
2023-05-16T15:05:20.065Z,4.90
2023-05-16T15:06:24.572Z,5.15
2023-05-16T15:07:26.480Z,6.95
2023-05-16T15:08:28.426Z,4.60
2023-05-16T15:09:30.221Z,4.00
2023-05-16T15:10:32.189Z,5.32
2023-05-16T15:11:35.363Z,4.93
2023-05-16T15:12:37.863Z,5.88
2023-05-16T15:13:39.766Z,8.25
2023-05-16T15:14:41.600Z,3.67
2023-05-16T15:15:43.659Z,4.82
2023-05-16T15:16:47.386Z,5.25
2023-05-16T15:17:49.551Z,5.13
2023-05-16T15:18:51.541Z,3.63
2023-05-16T15:19:54.371Z,4.20
2023-05-16T15:20:56.308Z,6.40
2023-05-16T15:21:58.314Z,6.57
2023-05-16T15:23:00.688Z,3.65
2023-05-16T15:24:02.568Z,6.60
2023-05-16T15:25:05.930Z,5.82
2023-05-16T15:26:07.795Z,6.70
2023-05-16T15:27:09.755Z,7.82
2023-05-16T15:28:11.561Z,5.88
2023-05-16T15:29:13.400Z,7.80
2023-05-16T15:30:15.561Z,4.07
2023-05-16T15:31:18.807Z,6.70
2023-05-16T15:32:23.144Z,5.50
2023-05-16T15:33:25.254Z,4.20
2023-05-16T15:34:28.627Z,5.10
2023-05-16T15:35:31.766Z,7.30
2023-05-16T15:36:33.721Z,4.15
2023-05-16T15:37:35.961Z,9.10
2023-05-16T15:38:38.014Z,5.97
2023-05-16T15:39:39.946Z,4.93
2023-05-16T15:40:41.730Z,4.60
2023-05-16T15:42:08.440Z,10.50
2023-05-16T15:43:05.928Z,9.52
2023-05-16T15:44:07.856Z,5.55
2023-05-16T15:45:11.605Z,3.22
2023-05-16T15:46:14.959Z,5.70
2023-05-16T15:47:18.043Z,3.70
2023-05-16T15:48:20.275Z,3.85
2023-05-16T15:49:23.193Z,7.95
2023-05-16T15:50:25.347Z,7.43
2023-05-16T15:51:27.519Z,6.50
2023-05-16T15:52:29.480Z,6.05
2023-05-16T15:53:31.327Z,5.15
2023-05-16T15:54:33.544Z,9.35
2023-05-16T15:55:35.543Z,5.88
2023-05-16T15:56:37.723Z,7.50
2023-05-16T15:57:40.562Z,5.32
2023-05-16T15:58:43.763Z,6.68
2023-05-16T15:59:47.003Z,6.70
2023-05-16T16:00:48.896Z,8.23
2023-05-16T16:01:52.264Z,6.53
2023-05-16T16:02:54.560Z,6.28
2023-05-16T16:03:56.618Z,9.60
2023-05-16T16:04:58.497Z,9.55
2023-05-16T16:06:00.432Z,6.10
2023-05-16T16:07:02.641Z,4.97
2023-05-16T16:08:04.931Z,8.05
2023-05-16T16:09:06.943Z,5.68
2023-05-16T16:10:09.417Z,6.63
2023-05-16T16:11:11.346Z,4.25
2023-05-16T16:12:14.501Z,5.32
2023-05-16T16:13:16.579Z,7.00
2023-05-16T16:14:18.535Z,8.10
2023-05-16T16:15:20.452Z,5.18
2023-05-16T16:16:23.698Z,5.95
2023-05-16T16:17:25.680Z,8.00
2023-05-16T16:18:28.341Z,4.72
2023-05-16T16:19:31.535Z,4.05
2023-05-16T16:20:33.436Z,7.93
2023-05-16T16:21:35.974Z,7.25
2023-05-16T16:22:38.312Z,5.05
2023-05-16T16:23:41.368Z,4.93
2023-05-16T16:24:43.153Z,11.38
2023-05-16T16:25:45.024Z,8.23
2023-05-16T16:26:47.961Z,17.35
2023-05-16T16:27:49.938Z,7.28
2023-05-16T16:28:51.848Z,10.27
2023-05-16T16:29:53.662Z,7.32
2023-05-16T16:30:55.776Z,7.47
2023-05-16T16:31:58.962Z,6.45
2023-05-16T16:33:01.030Z,7.82
2023-05-16T16:34:03.194Z,6.68
2023-05-16T16:35:05.733Z,6.32
2023-05-16T16:36:09.965Z,6.75
2023-05-16T16:37:12.234Z,6.47
2023-05-16T16:38:14.318Z,7.03
2023-05-16T16:39:17.421Z,6.05
2023-05-16T16:40:19.323Z,6.50
2023-05-16T16:41:21.226Z,7.03
2023-05-16T16:42:25.372Z,7.10
2023-05-16T16:43:27.324Z,9.10
2023-05-16T16:44:29.247Z,11.05
2023-05-16T16:45:31.436Z,7.63
2023-05-16T16:46:34.010Z,8.25
2023-05-16T16:47:36.463Z,7.30
2023-05-16T16:48:38.412Z,5.00
2023-05-16T16:49:40.781Z,9.75
2023-05-16T16:50:43.522Z,8.38
2023-05-16T16:51:51.777Z,7.55
2023-05-16T16:52:59.067Z,6.63
2023-05-16T16:54:00.978Z,6.40
2023-05-16T16:55:02.996Z,10.25
2023-05-16T16:56:05.931Z,13.98
2023-05-16T16:57:10.396Z,6.63
2023-05-16T16:58:12.391Z,9.77
2023-05-16T16:59:14.561Z,9.45
2023-05-16T17:00:17.223Z,6.93
2023-05-16T17:01:19.687Z,7.68
2023-05-16T17:02:22.325Z,10.88
2023-05-16T17:03:24.685Z,7.15